Time;durP1;ratioP1;P1;durP2;ratioP2;P2;SDS_P1;SDS_P2;PMS_P1;PMS_P2;Temp;Humidity;BMP_temperature;BMP_pressure;BME280_temperature;BME280_humidity;BME280_pressure;Samples;Min_cycle;Max_cycle;Signal;HPM_P1;HPM_P2
2021/10/23 00:01:44;;;;;;;;;93.25;90.75;20.20;56.30;;;;;;4844540;29;8800;-63
2021/10/23 00:04:10;;;;;;;;;93.25;90.75;20.20;56.30;;;;;;4844903;29;8792;-63
2021/10/23 00:06:36;;;;;;;;;96.00;92.00;20.20;56.30;;;;;;4844571;29;8881;-62
2021/10/23 00:09:02;;;;;;;;;103.75;102.50;20.20;56.40;;;;;;4844464;29;8848;-62
2021/10/23 00:11:28;;;;;;;;;97.25;95.00;20.20;56.30;;;;;;4844412;29;8796;-62
2021/10/23 00:13:54;;;;;;;;;104.00;103.50;20.10;56.70;;;;;;4844481;29;8810;-62
2021/10/23 00:16:19;;;;;;;;;86.25;85.50;20.10;56.80;;;;;;4844779;29;8946;-63
2021/10/23 00:18:45;;;;;;;;;96.50;93.50;20.10;56.80;;;;;;4844617;29;8789;-62
2021/10/23 00:21:11;;;;;;;;;96.00;94.50;20.10;56.90;;;;;;4844071;29;8808;-62
2021/10/23 00:23:37;;;;;;;;;101.50;98.00;20.10;56.80;;;;;;4848123;29;8848;-62
2021/10/23 00:26:03;;;;;;;;;105.00;104.50;20.20;56.70;;;;;;4862933;29;8793;-62
2021/10/23 00:28:29;;;;;;;;;90.50;89.75;20.20;56.60;;;;;;4862585;29;8881;-62
2021/10/23 00:30:54;;;;;;;;;94.50;92.75;20.10;56.70;;;;;;4861988;29;8869;-62
2021/10/23 00:33:20;;;;;;;;;97.00;95.00;20.10;56.90;;;;;;4862651;29;8908;-62
2021/10/23 00:35:46;;;;;;;;;94.50;92.50;20.10;56.90;;;;;;4861530;29;9009;-62
2021/10/23 00:38:12;;;;;;;;;95.00;89.75;20.10;57.00;;;;;;4862498;29;8817;-62
2021/10/23 00:40:38;;;;;;;;;82.00;81.75;20.10;56.70;;;;;;4862727;29;8829;-62
2021/10/23 00:43:04;;;;;;;;;86.50;77.50;20.10;56.70;;;;;;4862455;29;8805;-62
2021/10/23 00:45:30;;;;;;;;;79.75;77.00;20.20;56.80;;;;;;4862212;29;8881;-62
2021/10/23 00:47:56;;;;;;;;;82.75;77.25;20.20;56.90;;;;;;4862583;29;8801;-63
2021/10/23 00:50:22;;;;;;;;;76.75;70.50;20.10;56.90;;;;;;4862243;29;8984;-62
2021/10/23 00:52:49;;;;;;;;;88.00;84.75;20.10;56.80;;;;;;4862289;29;8808;-62
2021/10/23 00:55:16;;;;;;;;;83.00;82.25;20.20;56.90;;;;;;4862217;29;8876;-62
2021/10/23 00:57:42;;;;;;;;;87.00;81.75;20.10;57.10;;;;;;4862459;29;8820;-62
2021/10/23 01:00:08;;;;;;;;;75.75;72.00;20.10;57.20;;;;;;4862470;29;8797;-62
2021/10/23 01:02:35;;;;;;;;;78.75;77.75;20.10;57.30;;;;;;4862204;29;8807;-62
2021/10/23 01:05:06;;;;;;;;;85.50;80.50;20.10;57.40;;;;;;4862188;29;8797;-62
2021/10/23 01:07:34;;;;;;;;;81.00;79.00;20.20;57.20;;;;;;4862390;29;9042;-62
2021/10/23 01:10:01;;;;;;;;;81.25;73.25;20.10;56.90;;;;;;4861861;29;8859;-63
2021/10/23 01:12:27;;;;;;;;;88.75;85.75;20.20;57.00;;;;;;4861904;29;8793;-62
2021/10/23 01:14:53;;;;;;;;;90.00;89.25;20.20;56.90;;;;;;4862003;29;8878;-62
2021/10/23 01:17:21;;;;;;;;;82.50;73.50;20.10;56.80;;;;;;4862256;29;8798;-62
2021/10/23 01:19:53;;;;;;;;;87.50;86.00;20.20;57.90;;;;;;4862115;29;8802;-62
2021/10/23 01:22:32;;;;;;;;;87.25;85.00;20.10;56.70;;;;;;4861170;29;8818;-62
2021/10/23 01:24:58;;;;;;;;;80.25;80.00;20.10;56.90;;;;;;4855716;29;8800;-61
2021/10/23 01:27:23;;;;;;;;;79.50;70.25;20.20;56.90;;;;;;4843504;29;9562;-62
2021/10/23 01:29:49;;;;;;;;;79.00;74.25;20.10;57.00;;;;;;4843362;29;8926;-62
2021/10/23 01:32:15;;;;;;;;;82.25;75.25;20.10;57.20;;;;;;4843406;29;8816;-62
2021/10/23 01:34:41;;;;;;;;;82.00;77.75;20.10;57.20;;;;;;4843361;29;8828;-62
2021/10/23 01:37:07;;;;;;;;;76.75;72.75;20.10;57.10;;;;;;4843347;29;8826;-62
2021/10/23 01:39:34;;;;;;;;;84.50;79.25;20.10;57.20;;;;;;4843502;29;8812;-62
2021/10/23 01:42:01;;;;;;;;;82.75;76.25;20.10;57.20;;;;;;4846518;29;8846;-62
2021/10/23 01:44:29;;;;;;;;;86.25;82.25;20.10;57.00;;;;;;4846962;29;8984;-62
2021/10/23 01:46:55;;;;;;;;;82.00;79.75;20.10;57.20;;;;;;4845260;29;8951;-62
2021/10/23 01:49:21;;;;;;;;;79.50;76.50;20.10;57.20;;;;;;4847158;29;9060;-62
2021/10/23 01:51:47;;;;;;;;;81.50;73.25;20.10;57.20;;;;;;4847205;29;9480;-62
2021/10/23 01:54:13;;;;;;;;;83.00;78.00;20.10;57.20;;;;;;4847126;29;8846;-62
2021/10/23 01:56:40;;;;;;;;;83.50;80.25;20.20;57.30;;;;;;4846842;29;9482;-62
2021/10/23 01:59:08;;;;;;;;;89.50;86.75;20.20;58.30;;;;;;4847101;29;8796;-62
2021/10/23 02:01:34;;;;;;;;;87.25;85.25;20.10;57.20;;;;;;4847063;29;8800;-62
2021/10/23 02:04:01;;;;;;;;;85.25;82.25;20.10;57.20;;;;;;4846797;29;8792;-62
2021/10/23 02:06:27;;;;;;;;;80.00;74.00;20.20;57.40;;;;;;4846647;29;8805;-62
2021/10/23 02:08:53;;;;;;;;;78.75;75.50;20.10;57.20;;;;;;4846533;29;8847;-62
2021/10/23 02:11:18;;;;;;;;;83.50;80.25;20.10;57.20;;;;;;4846639;29;8804;-62
2021/10/23 02:13:45;;;;;;;;;86.25;82.75;20.10;57.10;;;;;;4846371;29;8826;-62
2021/10/23 02:16:11;;;;;;;;;82.50;78.50;20.20;57.00;;;;;;4846774;29;8836;-62
2021/10/23 02:18:37;;;;;;;;;79.00;75.50;20.20;57.10;;;;;;4846686;29;9570;-62
2021/10/23 02:21:08;;;;;;;;;93.50;92.50;20.20;57.10;;;;;;4846738;29;8880;-62
2021/10/23 02:23:34;;;;;;;;;79.75;76.00;20.20;58.00;;;;;;4846448;29;8808;-63
2021/10/23 02:26:01;;;;;;;;;77.50;71.25;20.20;57.20;;;;;;4846320;29;8788;-62
2021/10/23 02:28:27;;;;;;;;;78.00;72.25;20.20;57.30;;;;;;4846595;29;8784;-62
2021/10/23 02:30:53;;;;;;;;;83.25;75.25;20.20;57.20;;;;;;4846165;29;8852;-63
2021/10/23 02:33:19;;;;;;;;;75.50;69.50;20.10;57.00;;;;;;4846260;29;8811;-63
2021/10/23 02:35:44;;;;;;;;;74.50;67.50;20.10;57.10;;;;;;4846188;29;8811;-64
2021/10/23 02:38:11;;;;;;;;;76.75;71.50;20.10;57.20;;;;;;4846293;29;8772;-62
2021/10/23 02:40:38;;;;;;;;;76.25;65.25;20.00;57.50;;;;;;4846328;29;9477;-62
2021/10/23 02:43:04;;;;;;;;;76.25;69.50;20.10;57.40;;;;;;4846068;29;8827;-62
2021/10/23 02:45:30;;;;;;;;;77.50;68.50;20.20;57.30;;;;;;4845985;29;8875;-62
2021/10/23 02:47:56;;;;;;;;;76.00;68.75;20.20;57.30;;;;;;4852349;29;8829;-62
2021/10/23 02:50:22;;;;;;;;;75.75;64.75;20.00;57.30;;;;;;4864330;29;8875;-62
2021/10/23 02:52:47;;;;;;;;;77.25;66.75;20.10;57.60;;;;;;4863833;29;8902;-62
2021/10/23 02:55:13;;;;;;;;;74.00;67.25;20.00;57.50;;;;;;4864338;29;8794;-62
2021/10/23 02:57:39;;;;;;;;;70.75;59.00;20.00;57.60;;;;;;4864284;29;8790;-62
2021/10/23 03:00:07;;;;;;;;;77.00;69.50;20.00;57.80;;;;;;4864488;29;9484;-62
2021/10/23 03:02:33;;;;;;;;;72.50;62.50;20.00;57.50;;;;;;4864213;29;8821;-62
2021/10/23 03:05:02;;;;;;;;;69.25;59.25;20.10;57.50;;;;;;4864458;29;8832;-62
2021/10/23 03:07:29;;;;;;;;;69.50;56.50;20.10;57.30;;;;;;4864363;29;8801;-62
2021/10/23 03:09:54;;;;;;;;;69.50;57.00;20.10;57.40;;;;;;4864082;29;8913;-62
2021/10/23 03:12:20;;;;;;;;;63.25;52.75;20.00;57.60;;;;;;4864034;29;8809;-62
2021/10/23 03:14:46;;;;;;;;;64.00;52.75;20.10;57.70;;;;;;4863970;29;8837;-63
2021/10/23 03:17:12;;;;;;;;;62.25;51.00;20.00;57.60;;;;;;4864194;29;8814;-62
2021/10/23 03:19:38;;;;;;;;;55.25;45.75;20.10;57.60;;;;;;4864117;29;9473;-62
2021/10/23 03:22:04;;;;;;;;;60.75;51.50;20.10;57.50;;;;;;4863807;29;8832;-62
2021/10/23 03:24:29;;;;;;;;;57.00;48.00;20.10;57.70;;;;;;4863889;29;8814;-62
2021/10/23 03:26:55;;;;;;;;;55.75;46.50;20.00;57.40;;;;;;4864096;29;8773;-62
2021/10/23 03:29:21;;;;;;;;;60.25;50.25;20.10;57.40;;;;;;4863740;29;9425;-62
2021/10/23 03:31:47;;;;;;;;;54.50;46.75;20.10;57.30;;;;;;4863721;29;8809;-62
2021/10/23 03:34:13;;;;;;;;;52.25;43.50;20.10;57.30;;;;;;4863735;29;8782;-62
2021/10/23 03:36:39;;;;;;;;;45.33;39.00;20.10;56.70;;;;;;4863843;29;8828;-62
2021/10/23 03:39:05;;;;;;;;;39.67;36.67;20.00;55.30;;;;;;4863784;29;8793;-62
2021/10/23 03:41:31;;;;;;;;;32.67;31.33;20.00;55.50;;;;;;4863379;29;8799;-62
2021/10/23 03:43:57;;;;;;;;;34.00;32.67;20.00;54.70;;;;;;4862493;29;8892;-62
2021/10/23 03:46:23;;;;;;;;;28.67;28.67;19.90;54.10;;;;;;4863254;29;8993;-62
2021/10/23 03:48:48;;;;;;;;;33.33;33.00;19.90;53.20;;;;;;4863284;29;8798;-62
2021/10/23 03:51:14;;;;;;;;;28.00;28.00;19.80;52.80;;;;;;4863583;29;8820;-62
2021/10/23 03:53:40;;;;;;;;;29.00;29.00;19.70;53.00;;;;;;4863269;29;8904;-62
2021/10/23 03:56:06;;;;;;;;;25.33;25.33;19.70;52.60;;;;;;4863234;29;8801;-62
2021/10/23 03:58:32;;;;;;;;;17.33;17.33;19.60;52.00;;;;;;4863208;29;8813;-62
2021/10/23 04:00:57;;;;;;;;;25.33;25.33;19.50;50.40;;;;;;4863165;29;8892;-62
2021/10/23 04:03:23;;;;;;;;;20.33;20.33;19.50;50.50;;;;;;4863078;29;8794;-62
2021/10/23 04:05:49;;;;;;;;;14.33;14.33;19.40;49.20;;;;;;4862330;29;8809;-62
2021/10/23 04:08:15;;;;;;;;;18.67;18.67;19.40;48.70;;;;;;4863267;29;9819;-62
2021/10/23 04:10:41;;;;;;;;;16.67;16.67;19.30;48.80;;;;;;4862888;29;8818;-62
2021/10/23 04:13:07;;;;;;;;;15.00;15.00;19.30;49.00;;;;;;4863223;29;8801;-62
2021/10/23 04:15:33;;;;;;;;;18.00;18.00;19.30;49.00;;;;;;4863007;29;8842;-62
2021/10/23 04:17:59;;;;;;;;;18.33;18.33;19.20;48.40;;;;;;4862903;29;8932;-62
2021/10/23 04:20:25;;;;;;;;;18.67;18.67;19.10;48.70;;;;;;4862819;29;8805;-62
2021/10/23 04:22:51;;;;;;;;;17.00;17.00;19.10;48.70;;;;;;4862980;29;8823;-62
2021/10/23 04:25:18;;;;;;;;;16.67;16.67;19.10;49.00;;;;;;4862754;29;8794;-62
2021/10/23 04:27:44;;;;;;;;;14.00;14.00;19.00;47.90;;;;;;4862689;29;8810;-62
2021/10/23 04:30:10;;;;;;;;;14.67;14.67;19.00;46.80;;;;;;4862870;29;8868;-62
2021/10/23 04:32:36;;;;;;;;;16.67;15.33;18.90;47.60;;;;;;4862895;29;8794;-62
2021/10/23 04:35:03;;;;;;;;;12.33;12.33;18.90;47.00;;;;;;4862574;29;8820;-62
2021/10/23 04:37:40;;;;;;;;;9.00;9.00;18.80;47.60;;;;;;5088722;27;13497;-63
2021/10/23 04:40:07;;;;;;;;;13.00;13.00;18.80;45.50;;;;;;5091961;28;8780;-63
2021/10/23 04:42:33;;;;;;;;;10.00;10.00;18.70;46.30;;;;;;5091853;28;8768;-63
2021/10/23 04:44:59;;;;;;;;;10.33;10.33;18.70;46.20;;;;;;5091887;28;8768;-63
2021/10/23 04:47:25;;;;;;;;;12.33;12.33;18.60;46.90;;;;;;5091734;28;8796;-63
2021/10/23 04:49:51;;;;;;;;;8.00;8.00;18.50;46.30;;;;;;5091776;28;8788;-64
2021/10/23 04:52:17;;;;;;;;;9.00;9.00;18.50;46.10;;;;;;5091714;28;8780;-64
2021/10/23 04:54:42;;;;;;;;;8.00;8.00;18.50;46.50;;;;;;5091651;28;8764;-64
2021/10/23 04:57:08;;;;;;;;;8.00;8.00;18.40;45.90;;;;;;5091799;28;8804;-63
2021/10/23 04:59:35;;;;;;;;;8.67;8.67;18.40;46.70;;;;;;5091655;28;8789;-63
2021/10/23 05:02:01;;;;;;;;;5.00;5.00;18.40;46.60;;;;;;5091674;28;8772;-63
2021/10/23 05:04:27;;;;;;;;;8.67;8.67;18.40;46.50;;;;;;5091838;28;8841;-63
2021/10/23 05:06:53;;;;;;;;;10.33;10.33;18.30;46.50;;;;;;5091804;28;8815;-63
2021/10/23 05:09:19;;;;;;;;;15.00;15.00;18.20;46.30;;;;;;5091580;28;8772;-63
2021/10/23 05:11:44;;;;;;;;;13.00;13.00;18.20;46.40;;;;;;5091683;28;8760;-63
2021/10/23 05:14:10;;;;;;;;;12.33;12.33;18.20;44.90;;;;;;5091383;28;8769;-63
2021/10/23 05:16:36;;;;;;;;;7.33;7.33;18.20;45.80;;;;;;5091400;28;8818;-63
2021/10/23 05:19:02;;;;;;;;;12.00;12.00;18.20;44.80;;;;;;5091244;28;8780;-63
2021/10/23 05:21:28;;;;;;;;;12.67;12.67;18.20;43.60;;;;;;5091221;28;8914;-63
2021/10/23 05:23:56;;;;;;;;;17.33;17.33;18.20;44.60;;;;;;5091135;28;8849;-63
2021/10/23 05:26:22;;;;;;;;;22.00;21.00;18.20;44.90;;;;;;5091312;28;8849;-63
2021/10/23 05:28:48;;;;;;;;;16.67;16.67;18.10;45.00;;;;;;5090992;28;9657;-63
2021/10/23 05:31:14;;;;;;;;;16.67;16.67;18.10;43.90;;;;;;5091336;28;8875;-63
2021/10/23 05:33:39;;;;;;;;;16.33;16.33;18.10;43.70;;;;;;5091183;28;8769;-63
2021/10/23 05:36:05;;;;;;;;;12.33;12.33;18.00;43.90;;;;;;5098397;28;8823;-63
2021/10/23 05:38:31;;;;;;;;;13.67;13.67;18.10;44.40;;;;;;5111157;28;8895;-63
2021/10/23 05:40:57;;;;;;;;;14.33;14.33;18.00;44.90;;;;;;5111086;28;8856;-63
2021/10/23 05:43:23;;;;;;;;;16.00;16.00;17.90;45.20;;;;;;5111602;28;8755;-63
2021/10/23 05:45:49;;;;;;;;;13.33;13.33;17.90;46.70;;;;;;5111199;28;8803;-63
2021/10/23 05:48:15;;;;;;;;;20.00;20.00;17.90;45.50;;;;;;5101433;28;8768;-63
2021/10/23 05:50:41;;;;;;;;;20.33;20.33;17.80;45.90;;;;;;5097615;28;8780;-62
2021/10/23 05:53:07;;;;;;;;;17.33;17.33;17.70;47.00;;;;;;5097613;28;9556;-63
2021/10/23 05:55:33;;;;;;;;;15.67;15.67;17.70;45.60;;;;;;5097242;28;8795;-63
2021/10/23 05:58:01;;;;;;;;;20.33;20.33;17.80;45.60;;;;;;5097174;28;8839;-63
2021/10/23 06:00:27;;;;;;;;;18.00;18.00;17.90;44.50;;;;;;5077147;28;8908;-61
2021/10/23 06:02:55;;;;;;;;;21.00;20.00;17.90;45.80;;;;;;5076482;28;8926;-60
2021/10/23 06:05:22;;;;;;;;;19.67;19.67;18.00;45.80;;;;;;5076699;28;8948;-59
2021/10/23 06:07:49;;;;;;;;;14.67;14.67;18.00;45.70;;;;;;5076796;28;8785;-59
2021/10/23 06:10:15;;;;;;;;;15.67;15.67;17.90;42.90;;;;;;5077025;28;8780;-60
2021/10/23 06:12:42;;;;;;;;;12.33;12.33;17.90;42.90;;;;;;5076740;28;8774;-60
2021/10/23 06:15:08;;;;;;;;;15.33;15.33;17.80;43.60;;;;;;5076697;28;8864;-62
2021/10/23 06:17:34;;;;;;;;;15.33;15.33;17.70;44.70;;;;;;5076531;28;8805;-60
2021/10/23 06:20:01;;;;;;;;;16.00;16.00;17.70;44.80;;;;;;5076082;28;8782;-61
2021/10/23 06:22:27;;;;;;;;;12.33;12.33;17.70;45.80;;;;;;5076889;28;9479;-61
2021/10/23 06:24:53;;;;;;;;;17.67;17.67;17.80;44.30;;;;;;5076499;28;8750;-61
2021/10/23 06:27:19;;;;;;;;;37.67;34.33;17.90;43.80;;;;;;5076527;28;8758;-61
2021/10/23 06:29:46;;;;;;;;;40.25;36.25;17.80;44.00;;;;;;5076410;28;8773;-61
2021/10/23 06:32:12;;;;;;;;;41.33;37.00;17.80;44.90;;;;;;5076402;28;8770;-62
2021/10/23 06:34:41;;;;;;;;;37.50;35.00;18.00;45.30;;;;;;5075932;28;8765;-61
2021/10/23 06:37:08;;;;;;;;;49.25;41.50;18.00;45.70;;;;;;5075973;28;8821;-62
2021/10/23 06:39:34;;;;;;;;;50.25;43.00;18.00;46.10;;;;;;5076193;28;8856;-61
2021/10/23 06:42:00;;;;;;;;;53.50;45.75;18.00;47.60;;;;;;5076111;28;8797;-60
2021/10/23 06:44:26;;;;;;;;;56.75;46.75;18.10;46.50;;;;;;5076043;28;8792;-60
2021/10/23 06:46:51;;;;;;;;;56.75;48.75;18.10;46.50;;;;;;5075978;28;8777;-62
2021/10/23 06:49:17;;;;;;;;;38.67;35.33;18.20;46.60;;;;;;5075495;28;9391;-61
2021/10/23 06:51:43;;;;;;;;;39.67;36.00;18.10;45.80;;;;;;5076254;28;8761;-62
2021/10/23 06:54:09;;;;;;;;;41.00;37.00;18.10;46.00;;;;;;5078456;28;8794;-63
2021/10/23 06:56:35;;;;;;;;;32.00;32.00;18.10;45.80;;;;;;5093307;28;8799;-65
2021/10/23 06:59:04;;;;;;;;;28.00;28.00;18.10;45.90;;;;;;5082392;28;8815;-65
2021/10/23 07:01:30;;;;;;;;;29.67;29.67;18.00;45.80;;;;;;5075731;28;8765;-63
2021/10/23 07:03:56;;;;;;;;;47.00;41.67;18.10;45.80;;;;;;5075258;28;8781;-65
2021/10/23 07:06:22;;;;;;;;;45.00;39.25;18.10;46.30;;;;;;5075814;28;8794;-66
2021/10/23 07:08:48;;;;;;;;;46.75;40.00;18.10;47.20;;;;;;5075917;28;9493;-68
2021/10/23 07:11:15;;;;;;;;;42.00;37.25;18.10;47.40;;;;;;5075488;28;8762;-69
2021/10/23 07:13:41;;;;;;;;;41.00;37.00;18.10;47.70;;;;;;5075427;28;8770;-65
2021/10/23 07:16:07;;;;;;;;;34.00;32.33;18.10;47.60;;;;;;5075550;28;8802;-69
2021/10/23 07:18:33;;;;;;;;;36.67;34.67;18.10;47.80;;;;;;5075070;28;9419;-69
2021/10/23 07:20:59;;;;;;;;;42.00;38.33;18.00;48.00;;;;;;5075580;28;8786;-66
2021/10/23 07:23:25;;;;;;;;;34.67;31.67;18.10;48.30;;;;;;5075275;28;8862;-66
2021/10/23 07:25:51;;;;;;;;;32.67;32.00;18.00;47.60;;;;;;5075245;28;8871;-67
2021/10/23 07:28:17;;;;;;;;;29.00;29.00;17.90;47.70;;;;;;5075335;28;8782;-65
2021/10/23 07:30:43;;;;;;;;;26.33;26.33;17.90;47.70;;;;;;5084252;28;8776;-62
2021/10/23 07:33:09;;;;;;;;;27.67;27.67;17.90;47.50;;;;;;5094461;28;8803;-61
2021/10/23 07:35:35;;;;;;;;;27.00;27.00;17.80;47.50;;;;;;5092080;28;8819;-64
2021/10/23 07:38:03;;;;;;;;;24.33;24.33;17.80;47.40;;;;;;5094809;28;8752;-63
2021/10/23 07:40:29;;;;;;;;;26.67;26.00;17.70;48.20;;;;;;5088729;28;8870;-65
2021/10/23 07:42:55;;;;;;;;;31.33;31.00;17.80;47.70;;;;;;5081727;28;8782;-68
2021/10/23 07:45:21;;;;;;;;;25.33;25.33;17.80;48.30;;;;;;5085080;28;8789;-68
2021/10/23 07:47:47;;;;;;;;;29.00;29.00;17.80;48.00;;;;;;5086466;28;9413;-60
2021/10/23 07:50:13;;;;;;;;;29.67;29.67;17.80;47.70;;;;;;5085995;28;8858;-60
2021/10/23 07:52:40;;;;;;;;;29.00;29.00;17.90;47.10;;;;;;5093232;28;9889;-62
2021/10/23 07:55:08;;;;;;;;;27.33;27.33;17.80;47.30;;;;;;5094704;28;8768;-68
2021/10/23 07:57:40;;;;;;;;;27.00;27.00;17.90;47.30;;;;;;5095115;28;8803;-63
2021/10/23 08:00:08;;;;;;;;;27.00;27.00;17.80;46.60;;;;;;5094991;28;8780;-69
2021/10/23 08:02:34;;;;;;;;;24.33;24.33;17.90;46.80;;;;;;5094711;28;9379;-71
2021/10/23 08:05:00;;;;;;;;;21.33;21.33;17.80;47.80;;;;;;5094818;28;8855;-63
2021/10/23 08:07:25;;;;;;;;;23.67;23.67;17.80;47.20;;;;;;5095217;28;8804;-70
2021/10/23 08:09:53;;;;;;;;;22.67;22.67;17.80;46.70;;;;;;5094762;28;8883;-66
2021/10/23 08:12:19;;;;;;;;;21.67;21.00;17.80;46.40;;;;;;5094519;28;9271;-66
2021/10/23 08:14:45;;;;;;;;;25.33;25.33;17.70;45.80;;;;;;5094858;28;8776;-62
2021/10/23 08:17:11;;;;;;;;;20.67;20.33;17.70;46.10;;;;;;5094836;28;8810;-66
2021/10/23 08:19:36;;;;;;;;;24.00;24.00;17.70;45.60;;;;;;5094635;28;9483;-71
2021/10/23 08:22:03;;;;;;;;;26.00;26.00;17.70;45.20;;;;;;5088561;28;8814;-66
2021/10/23 08:24:29;;;;;;;;;27.67;27.67;17.70;45.20;;;;;;5084503;28;8805;-60
2021/10/23 08:26:54;;;;;;;;;28.33;28.33;17.80;44.60;;;;;;5087083;28;8745;-69
2021/10/23 08:29:20;;;;;;;;;27.67;27.67;17.80;44.60;;;;;;5094214;28;8768;-68
2021/10/23 08:31:46;;;;;;;;;22.67;22.67;17.80;44.40;;;;;;5092378;28;8808;-66
2021/10/23 08:34:12;;;;;;;;;24.33;24.33;17.80;44.60;;;;;;5085263;28;8810;-66
2021/10/23 08:36:38;;;;;;;;;24.67;24.67;17.90;44.60;;;;;;5084660;28;8974;-68
2021/10/23 08:39:06;;;;;;;;;25.33;25.33;17.90;44.10;;;;;;5079327;28;8856;-65
2021/10/23 08:41:33;;;;;;;;;18.00;18.00;17.80;45.20;;;;;;5094134;28;8800;-66
2021/10/23 08:44:07;;;;;;;;;21.00;21.00;17.80;43.90;;;;;;5094313;28;8783;-63
2021/10/23 08:46:37;;;;;;;;;22.00;22.00;17.80;43.70;;;;;;5094748;28;8783;-65
2021/10/23 08:49:04;;;;;;;;;27.67;27.67;17.70;44.40;;;;;;5094497;28;8764;-65
2021/10/23 08:51:31;;;;;;;;;19.33;19.33;17.70;44.30;;;;;;5093945;28;8800;-67
2021/10/23 08:53:58;;;;;;;;;17.33;17.33;17.70;44.20;;;;;;5084635;28;8790;-64
2021/10/23 08:56:24;;;;;;;;;19.67;19.67;17.60;44.00;;;;;;5080521;28;8801;-69
2021/10/23 08:58:50;;;;;;;;;14.33;13.67;17.60;44.20;;;;;;5087290;28;8760;-67
2021/10/23 09:01:16;;;;;;;;;21.67;21.67;17.70;43.10;;;;;;5085993;28;9564;-68
2021/10/23 09:03:44;;;;;;;;;17.33;17.33;17.70;43.60;;;;;;5075198;28;8757;-67
2021/10/23 09:06:34;;;;;;;;;19.33;19.33;17.60;43.40;;;;;;5073967;28;8778;-65
2021/10/23 09:09:10;;;;;;;;;17.00;17.00;17.60;43.30;;;;;;5079505;28;8780;-58
2021/10/23 09:11:45;;;;;;;;;15.00;15.00;17.60;43.60;;;;;;5083665;28;8787;-59
2021/10/23 09:14:31;;;;;;;;;15.33;15.00;17.80;42.70;;;;;;5093441;28;8756;-59
2021/10/23 09:17:09;;;;;;;;;22.33;22.33;17.80;43.00;;;;;;5083222;28;8836;-60
2021/10/23 09:19:42;;;;;;;;;14.00;14.00;17.90;42.90;;;;;;5091910;28;8788;-60
2021/10/23 09:22:27;;;;;;;;;16.00;16.00;17.90;42.30;;;;;;5093411;28;8802;-60
2021/10/23 09:25:13;;;;;;;;;19.00;19.00;17.80;42.50;;;;;;5097682;28;8790;-61
2021/10/23 09:28:09;;;;;;;;;17.00;16.67;17.80;42.50;;;;;;5097755;28;9442;-61
2021/10/23 09:30:36;;;;;;;;;15.33;15.33;17.80;42.30;;;;;;5097125;28;8785;-61
2021/10/23 09:33:06;;;;;;;;;8.67;8.67;17.60;42.80;;;;;;5095875;28;8949;-62
2021/10/23 09:35:40;;;;;;;;;18.67;18.67;17.60;43.40;;;;;;5083256;28;8799;-58
2021/10/23 09:38:07;;;;;;;;;18.33;18.33;17.60;43.60;;;;;;5088707;28;8963;-60
2021/10/23 09:40:34;;;;;;;;;18.00;18.00;17.60;43.00;;;;;;5077160;28;8762;-59
2021/10/23 09:43:23;;;;;;;;;18.33;18.33;17.60;42.70;;;;;;5077206;28;8782;-58
2021/10/23 09:45:56;;;;;;;;;19.33;19.33;17.70;43.50;;;;;;5084188;28;8800;-58
2021/10/23 09:48:40;;;;;;;;;16.00;15.33;17.70;42.90;;;;;;5066569;28;9460;-59
2021/10/23 09:51:21;;;;;;;;;20.00;20.00;17.60;42.80;;;;;;5088054;28;8770;-59
2021/10/23 09:53:52;;;;;;;;;16.67;16.67;17.50;43.50;;;;;;5092928;28;8849;-60
2021/10/23 09:56:22;;;;;;;;;20.67;20.67;17.30;43.80;;;;;;5097210;28;8892;-60
2021/10/23 09:59:00;;;;;;;;;24.00;24.00;17.40;43.70;;;;;;5083408;28;8786;-63
2021/10/23 10:01:46;;;;;;;;;23.00;23.00;17.40;43.80;;;;;;5083501;28;8837;-61
2021/10/23 10:04:14;;;;;;;;;22.33;22.33;17.40;43.80;;;;;;5080641;28;8789;-60
2021/10/23 10:06:41;;;;;;;;;26.67;25.67;17.30;44.00;;;;;;5081944;28;8960;-61
2021/10/23 10:09:08;;;;;;;;;16.67;16.67;17.40;44.00;;;;;;5097150;28;8775;-59
2021/10/23 10:11:37;;;;;;;;;21.00;21.00;17.40;44.00;;;;;;5097038;28;8768;-60
2021/10/23 10:14:12;;;;;;;;;23.00;21.67;17.30;44.40;;;;;;5086194;28;8754;-61
2021/10/23 10:16:41;;;;;;;;;18.33;18.33;17.30;44.50;;;;;;5088893;28;8796;-60
2021/10/23 10:19:08;;;;;;;;;20.00;20.00;17.40;45.00;;;;;;5096976;28;8763;-60
2021/10/23 10:21:38;;;;;;;;;20.33;20.33;17.50;44.90;;;;;;5096457;28;8774;-60
2021/10/23 10:24:20;;;;;;;;;24.00;24.00;17.50;44.60;;;;;;5094653;28;8781;-59
2021/10/23 10:27:04;;;;;;;;;25.67;25.67;17.50;44.60;;;;;;5082992;28;8776;-58
2021/10/23 10:30:00;;;;;;;;;27.33;27.33;17.50;44.40;;;;;;5084256;28;9397;-60
2021/10/23 10:32:38;;;;;;;;;30.00;30.00;17.50;44.40;;;;;;5080205;28;8768;-58
2021/10/23 10:35:29;;;;;;;;;32.00;31.00;17.50;44.70;;;;;;5083118;28;8766;-60
2021/10/23 10:38:11;;;;;;;;;31.67;31.00;17.60;44.50;;;;;;5089347;28;9493;-62
2021/10/23 10:43:16;;;;;;;;;31.33;30.00;17.60;44.70;;;;;;5088378;28;8779;-58
2021/10/23 10:45:53;;;;;;;;;25.67;25.67;17.60;44.50;;;;;;5096155;28;8776;-59
2021/10/23 10:48:29;;;;;;;;;31.67;31.67;17.60;44.00;;;;;;5096494;28;8791;-63
2021/10/23 10:51:00;;;;;;;;;31.33;31.00;17.60;44.00;;;;;;5096175;28;8784;-60
2021/10/23 10:53:29;;;;;;;;;32.33;31.33;17.60;44.30;;;;;;5088025;28;9436;-62
2021/10/23 10:56:11;;;;;;;;;33.00;32.00;17.50;43.90;;;;;;5085294;28;8807;-58
2021/10/23 10:58:47;;;;;;;;;34.67;33.67;17.50;44.00;;;;;;5096036;28;8876;-62
2021/10/23 11:01:26;;;;;;;;;27.00;27.00;17.40;44.10;;;;;;5089343;28;8791;-61
2021/10/23 11:03:52;;;;;;;;;28.67;28.67;17.50;43.60;;;;;;5087890;28;8764;-60
2021/10/23 11:11:50;;;;;;;;;35.00;34.00;17.60;43.70;;;;;;5078785;28;8854;-63
2021/10/23 11:16:53;;;;;;;;;28.67;28.67;17.70;42.00;;;;;;5088944;28;9484;-60
2021/10/23 11:19:41;;;;;;;;;16.33;16.33;17.60;42.80;;;;;;5095790;28;9485;-61
2021/10/23 11:22:35;;;;;;;;;26.67;26.33;17.60;42.90;;;;;;5095604;28;9484;-60
2021/10/23 11:25:10;;;;;;;;;29.33;28.67;17.70;43.20;;;;;;5095793;28;8818;-61
2021/10/23 11:27:46;;;;;;;;;34.67;33.00;17.70;43.40;;;;;;5095443;28;8759;-60
2021/10/23 11:30:15;;;;;;;;;27.33;27.33;17.70;43.10;;;;;;5095398;28;8747;-60
2021/10/23 11:33:13;;;;;;;;;28.67;28.67;17.90;43.00;;;;;;5095417;28;8760;-61
2021/10/23 11:35:49;;;;;;;;;35.33;34.33;18.00;43.20;;;;;;5001925;28;8980;-61
2021/10/23 11:38:27;;;;;;;;;34.33;32.67;17.90;43.40;;;;;;4996009;28;8858;-59
2021/10/23 11:40:57;;;;;;;;;37.33;35.67;18.10;43.70;;;;;;5000507;28;8779;-56
2021/10/23 11:43:24;;;;;;;;;29.33;29.33;18.20;43.70;;;;;;5001005;28;8778;-61
2021/10/23 11:45:51;;;;;;;;;30.00;30.00;18.20;43.40;;;;;;4992880;28;8801;-58
2021/10/23 11:48:20;;;;;;;;;25.33;25.33;18.20;43.40;;;;;;4993154;28;8770;-61
2021/10/23 11:50:49;;;;;;;;;32.67;32.00;18.10;43.20;;;;;;4996964;28;8773;-59
2021/10/23 11:53:28;;;;;;;;;31.00;30.67;18.10;43.40;;;;;;5004797;28;8798;-59
2021/10/23 11:56:14;;;;;;;;;36.00;33.00;18.30;43.40;;;;;;4997857;28;8816;-57
2021/10/23 11:58:41;;;;;;;;;27.00;26.00;18.40;43.00;;;;;;5001658;28;8774;-59
2021/10/23 12:01:19;;;;;;;;;26.67;26.67;18.50;43.00;;;;;;4999262;28;8784;-62
2021/10/23 12:03:49;;;;;;;;;26.33;26.33;18.60;43.00;;;;;;4996626;28;8797;-57
2021/10/23 12:06:26;;;;;;;;;21.00;21.00;18.70;42.40;;;;;;4995483;28;8788;-61
2021/10/23 12:08:56;;;;;;;;;25.67;25.67;18.90;42.30;;;;;;5004145;28;8783;-57
2021/10/23 12:11:31;;;;;;;;;21.33;21.33;18.80;42.00;;;;;;5029801;28;8784;-58
2021/10/23 12:14:00;;;;;;;;;29.67;29.67;18.60;42.60;;;;;;5082787;28;9444;-60
2021/10/23 12:16:48;;;;;;;;;27.00;27.00;18.60;43.00;;;;;;5082790;28;8891;-59
2021/10/23 12:19:34;;;;;;;;;26.67;26.67;18.70;42.60;;;;;;5081011;28;8789;-58
2021/10/23 12:22:13;;;;;;;;;22.00;21.33;18.70;42.50;;;;;;5062739;28;9455;-63
2021/10/23 12:24:41;;;;;;;;;26.00;26.00;18.60;42.80;;;;;;5085794;28;8803;-67
2021/10/23 12:27:11;;;;;;;;;20.67;20.67;18.70;42.60;;;;;;5093460;28;8760;-64
2021/10/23 12:30:10;;;;;;;;;21.67;21.67;18.50;42.50;;;;;;5094096;28;8772;-60
2021/10/23 12:32:37;;;;;;;;;18.67;18.67;18.50;42.60;;;;;;5094439;28;8779;-65
2021/10/23 12:35:05;;;;;;;;;29.67;29.00;18.60;42.90;;;;;;5086170;28;8864;-63
2021/10/23 12:37:40;;;;;;;;;16.67;16.67;18.60;42.20;;;;;;5083512;28;8920;-67
2021/10/23 12:40:25;;;;;;;;;24.00;24.00;18.70;41.30;;;;;;5077786;28;8867;-62
2021/10/23 12:42:56;;;;;;;;;23.33;23.33;18.60;41.80;;;;;;5087402;28;8809;-64
2021/10/23 12:45:25;;;;;;;;;21.00;21.00;18.40;42.70;;;;;;5078867;28;8787;-66
2021/10/23 12:47:53;;;;;;;;;30.33;30.00;18.40;43.00;;;;;;5082134;28;9556;-65
2021/10/23 12:50:22;;;;;;;;;27.67;27.67;18.30;43.00;;;;;;5084013;28;8863;-64
2021/10/23 12:52:52;;;;;;;;;21.00;21.00;18.30;43.50;;;;;;5091812;28;8800;-65
2021/10/23 12:55:20;;;;;;;;;27.00;27.00;18.40;43.30;;;;;;5082580;28;8818;-64
2021/10/23 12:57:45;;;;;;;;;26.67;26.67;18.40;43.40;;;;;;5085285;28;8815;-66